Flight Track Log - Related Links

Times and Time Zones

All times are in EDT time to prevent confusion due to time zone crossing. See the LXJ437 flight status page for this flight to view local times or setup timezone preferences in your user account.


Time Position Orientation Groundspeed Altitude Reporting Facility
EDT Latitude Longitude Course Direction KTS MPH feet Rate Location/Type
Thu 05:11:50 PM 33.6500 -117.8833 15° North 157 181 1,300  Level Southern California TRACON
Thu 05:12:50 PM 33.6000 -117.9000 196° South 209 241 3,700 1,826 Climbing Southern California TRACON
Thu 05:13:22 PM 33.5708 -117.8967 175° South 205 236 4,100 1,579 Climbing Los Angeles Center
Thu 05:14:25 PM 33.5283 -117.9464 224° Southwest 242 278 6,200 2,736 Climbing Los Angeles Center
Thu 05:15:27 PM 33.5192 -118.0242 262° West 234 269 9,800 2,855 Climbing Los Angeles Center
Thu 05:16:29 PM 33.5558 -118.1075 298° West 291 335 12,100 3,000 Climbing Los Angeles Center
Thu 05:17:00 PM 34.2399 -117.6883 15° North  Level Estimated
Thu 05:17:31 PM 33.6206 -118.2072 308° West 320 368 16,000  Level Los Angeles Center
Thu 05:18:33 PM 33.7156 -118.1839 12° North 377 434 18,500 2,710 Climbing Los Angeles Center
Thu 05:19:35 PM 33.7939 -118.0989 42° Northeast 384 442 21,600 2,565 Climbing Los Angeles Center
Thu 05:20:37 PM 33.8769 -118.0083 42° Northeast 402 463 23,800 1,790 Climbing Los Angeles Center
Thu 05:21:39 PM 33.9808 -117.8753 47° Northeast 451 519 25,300 1,824 Climbing Los Angeles Center
Thu 05:22:42 PM 34.0708 -117.7600 47° Northeast 471 542 27,600 2,352 Climbing Los Angeles Center
Thu 05:23:44 PM 34.1575 -117.6461 47° Northeast 465 535 30,200 2,177 Climbing Los Angeles Center
Thu 05:24:46 PM 34.2447 -117.5331 47° Northeast 461 531 32,100 1,887 Climbing Los Angeles Center
Thu 05:25:48 PM 34.3300 -117.4189 48° Northeast 460 529 34,100 1,935 Climbing Los Angeles Center
Thu 05:26:50 PM 34.4183 -117.3025 47° Northeast 453 521 36,100 1,403 Climbing Los Angeles Center
Thu 05:27:52 PM 34.5019 -117.1903 48° Northeast 451 519 37,000 871 Climbing Los Angeles Center
Thu 05:28:54 PM 34.6072 -117.0519 47° Northeast 463 533 37,900 919 Climbing Los Angeles Center
Thu 05:29:56 PM 34.6953 -116.9336 48° Northeast 471 542 38,900 532 Climbing Los Angeles Center
Thu 05:30:58 PM 34.7828 -116.8153 48° Northeast 473 544 39,000 240 Climbing Los Angeles Center
Thu 05:32:01 PM 34.8725 -116.6964 47° Northeast 477 549 39,400 720 Climbing Los Angeles Center
Thu 05:33:03 PM 34.9594 -116.5778 48° Northeast 474 545 40,500 774 Climbing Los Angeles Center
Thu 05:34:05 PM 35.0692 -116.4411 46° Northeast 472 543 41,000 242 Climbing Los Angeles Center
Thu 05:35:07 PM 35.1625 -116.3258 45° Northeast 474 545 41,000  Level Los Angeles Center
Thu 05:36:09 PM 35.2561 -116.2103 45° Northeast 478 550 41,000  Level Los Angeles Center
Thu 05:37:11 PM 35.3472 -116.0931 46° Northeast 478 550 41,000  Level Los Angeles Center
Thu 05:38:13 PM 35.4381 -115.9775 46° Northeast 475 547 41,000  Level Los Angeles Center
Thu 05:39:15 PM 35.5517 -115.8383 45° Northeast 474 545 41,000  Level Los Angeles Center
Thu 05:40:18 PM 35.6439 -115.7256 45° Northeast 469 540 41,000  Level Los Angeles Center
Thu 05:41:20 PM 35.7353 -115.6072 46° Northeast 475 547 41,000  Level Los Angeles Center
Thu 05:42:22 PM 35.8267 -115.4903 46° Northeast 477 549 41,000  Level Los Angeles Center
Thu 05:43:24 PM 35.9186 -115.3742 46° Northeast 476 548 41,000  Level Los Angeles Center
Thu 05:44:26 PM 36.0269 -115.2350 46° Northeast 474 545 41,000  Level Los Angeles Center
Thu 05:45:28 PM 36.1164 -115.1175 47° Northeast 473 544 41,000  Level Los Angeles Center
Thu 05:46:30 PM 36.2075 -115.0008 46° Northeast 474 545 41,000  Level Los Angeles Center
Thu 05:47:32 PM 36.2997 -114.8822 46° Northeast 478 550 41,000  Level Los Angeles Center
Thu 05:48:35 PM 36.3914 -114.7639 46° Northeast 479 551 41,000  Level Los Angeles Center
Thu 05:49:37 PM 36.4997 -114.6219 46° Northeast 475 547 41,000  Level Los Angeles Center
Thu 05:50:39 PM 36.5914 -114.5025 46° Northeast 475 547 41,000  Level Los Angeles Center
Thu 05:51:41 PM 36.6831 -114.3819 47° Northeast 479 551 41,000  Level Los Angeles Center
Thu 05:52:43 PM 36.7758 -114.2644 45° Northeast 477 549 41,000  Level Los Angeles Center
Thu 05:53:45 PM 36.8881 -114.1808 31° Northeast 471 542 41,000  Level Los Angeles Center
Thu 05:54:47 PM 36.9975 -114.0964 32° Northeast 466 536 41,000  Level Los Angeles Center
Thu 05:55:49 PM 37.1286 -113.9944 32° Northeast 463 533 41,000  Level Los Angeles Center
Thu 05:56:51 PM 37.2375 -113.9097 32° Northeast 461 531 41,000  Level Los Angeles Center
Thu 05:57:54 PM 37.3447 -113.8247 32° Northeast 458 527 41,000  Level Los Angeles Center
Thu 05:58:56 PM 37.4528 -113.7394 32° Northeast 458 527 41,000  Level Los Angeles Center
Thu 05:59:58 PM 37.5617 -113.6550 32° Northeast 459 528 41,000  Level Los Angeles Center
Thu 06:01:00 PM 37.6714 -113.5711 31° Northeast 461 531 41,000  Level Los Angeles Center
Thu 06:02:02 PM 37.8019 -113.4675 32° Northeast 461 531 41,000  Level Los Angeles Center
Thu 06:03:04 PM 37.9164 -113.4003 25° Northeast 459 528 41,000  Level Los Angeles Center
Thu 06:04:06 PM 38.0358 -113.4033 359° North 436 502 41,000  Level Los Angeles Center
Thu 06:05:08 PM 38.1564 -113.4039 360° North 433 498 41,000  Level Los Angeles Center
Thu 06:06:11 PM 38.2781 -113.3533 18° North 451 519 41,000  Level Los Angeles Center
Thu 06:07:39 PM 38.4578 -113.2725 19° North 457 526 41,000  Level Salt Lake Center
Thu 06:08:41 PM 38.5781 -113.2175 20° North 458 527 41,000 387 Level Salt Lake Center
Thu 06:09:43 PM 38.7228 -113.1542 19° North 458 527 41,800 677 Climbing Salt Lake Center
Thu 06:10:45 PM 38.8428 -113.0989 20° North 458 527 42,400 532 Climbing Salt Lake Center
Thu 06:11:47 PM 38.9658 -113.0439 19° North 464 534 42,900 290 Climbing Salt Lake Center
Thu 06:12:49 PM 39.0892 -112.9861 20° North 468 539 43,000 48 Climbing Salt Lake Center
Thu 06:13:51 PM 39.2158 -112.9297 19° North 476 548 43,000  Level Salt Lake Center
Thu 06:14:53 PM 39.3447 -112.8689 20° North 488 562 43,000  Level Salt Lake Center
Thu 06:15:55 PM 39.4706 -112.8125 19° North 483 556 43,000  Level Salt Lake Center
Thu 06:16:57 PM 39.6211 -112.7436 19° North 480 552 43,000  Level Salt Lake Center
Thu 06:17:59 PM 39.7469 -112.6869 19° North 479 551 43,000  Level Salt Lake Center
Thu 06:19:01 PM 39.8742 -112.6281 20° North 484 557 43,000  Level Salt Lake Center
Thu 06:20:03 PM 40.0025 -112.5853 14° North 477 549 43,000  Level Salt Lake Center
Thu 06:21:05 PM 40.1303 -112.5781 North 460 529 43,000  Level Salt Lake Center
Thu 06:22:06 PM 40.2567 -112.5733 North 455 524 43,000  Level Salt Lake Center
Thu 06:23:08 PM 40.4103 -112.5669 North 462 532 43,000  Level Salt Lake Center
Thu 06:24:10 PM 40.5389 -112.5631 North 462 532 43,000  Level Salt Lake Center
Thu 06:25:12 PM 40.6650 -112.5792 354° North 454 522 43,000  Level Salt Lake Center
Thu 06:26:15 PM 40.7783 -112.6419 337° Northwest 441 507 43,000  Level Salt Lake Center
Thu 06:27:16 PM 40.8914 -112.7100 336° Northwest 443 510 43,000  Level Salt Lake Center
Thu 06:28:18 PM 41.0042 -112.7778 336° Northwest 443 510 43,000  Level Salt Lake Center
Thu 06:29:20 PM 41.1175 -112.8472 335° Northwest 446 513 43,000  Level Salt Lake Center
Thu 06:30:22 PM 41.2281 -112.9164 335° Northwest 439 505 43,000  Level Salt Lake Center
Thu 06:31:24 PM 41.3633 -112.9978 336° Northwest 442 509 43,000  Level Salt Lake Center
Thu 06:32:25 PM 41.4725 -113.0650 335° Northwest 434 499 43,000  Level Salt Lake Center
Thu 06:33:27 PM 41.5869 -113.1358 335° Northwest 442 509 43,000  Level Salt Lake Center
Thu 06:34:29 PM 41.7031 -113.2075 335° Northwest 454 522 43,000  Level Salt Lake Center
Thu 06:35:31 PM 41.8194 -113.2797 335° Northwest 459 528 43,000  Level Salt Lake Center
Thu 06:36:33 PM 41.9350 -113.3531 335° Northwest 460 529 43,000 -919 Level Salt Lake Center
Thu 06:37:35 PM 42.0503 -113.4231 336° Northwest 457 526 41,100 -2,780 Descending Salt Lake Center
Thu 06:38:36 PM 42.1878 -113.5081 335° Northwest 453 521 37,300 -3,366 Descending Salt Lake Center
Thu 06:39:38 PM 42.3033 -113.5797 335° Northwest 455 524 34,200 -3,048 Descending Salt Lake Center
Thu 06:40:40 PM 42.4139 -113.6517 334° Northwest 442 509 31,000 -3,097 Descending Salt Lake Center
Thu 06:41:42 PM 42.5275 -113.7228 335° Northwest 448 516 27,800 -3,097 Descending Salt Lake Center
Thu 06:42:44 PM 42.6431 -113.7964 335° Northwest 458 527 24,600 -3,122 Descending Salt Lake Center
Thu 06:43:45 PM 42.7553 -113.8736 333° Northwest 454 522 21,400 -3,317 Descending Salt Lake Center
Thu 06:44:47 PM 42.8739 -113.9492 335° Northwest 420 483 17,800 -3,194 Descending Salt Lake Center
Thu 06:45:49 PM 42.9764 -114.0144 335° Northwest 395 455 14,800 -2,613 Descending Salt Lake Center
Thu 06:46:51 PM 43.0678 -114.0733 335° Northwest 360 414 12,400 -2,177 Descending Salt Lake Center
Thu 06:47:53 PM 43.1600 -114.1083 345° North 339 390 10,300 -1,403 Descending Salt Lake Center
Thu 06:48:55 PM 43.2319 -114.1311 347° North 329 379 9,500 -774 Descending Salt Lake Center
Thu 06:50:00 PM 43.3377 -114.2396 348° North  Level FlightAware Approximate

Login

Don't have an account? Register now (free) for customized features, flight alerts, and more!